Etusivu
METAR-TAF:

METAR-TAF

Lentoasemat :

Rønne, Tanska

Leveyspiiri: 55-04N, Pituuspiiri: 014-45E, korkeus merenpinnasta: 16 m

Tämänhetkinen sää

Tämä raportti tehtiin 17 minuuttia sitten, kello 13.20 UTC
Tuuli 12 kn pohjoisesta/koillisesta
Lämpötila 5°C
Kosteus 52%
Ilmanpaine 1023 hPa
Näkyvyys 10 km tai enemmän

METAR: EKRN 301320Z AUTO 03012KT 9999 SCT033/// 05/M04 Q1023

Aika: 15:37 (13:37 UTC)

Sääennuste

Tämä raportti tehtiin 2 tuntia ja 31 minuuttia sitten, kello 11.06 UTC
Ennuste voimassa 30. päivästä klo 12 UTC - 30. päivään klo 21 UTC
Tuuli 12 kn pohjoisesta/koillisesta
Näkyvyys 10 km tai enemmän
Hajonneita pilviä 2000 ft:n korkeudessa
Ajoittain
30. päivästä klo 12 UTC - 30. päivään klo 21 UTC
Muutamia pilviä 2000 ft:n korkeudessa, Cumulonimbus.

TAF: EKRN 301106Z 3012/3021 03012KT 9999 BKN020 TEMPO 3012/3021 FEW020CB

Säähavainnot ja -ennusteet yli 4000 lentoasemalta (METAR- ja TAF-raportit).

Käytössä olevat sääasemat on merkitty karttaan keltaisilla ja punaisilla pisteillä.

Aseta hiiri pisteen päälle nähdäksesi sääaseman nimen.

Klikkaa sitten nähdäksesi säähavainnot ja -ennusteet.

Kartan vaihtaminen: klikkaa mustalla rastilla varustettuja vihreitä pisteitä, niin voit zoomata sisään; viivalla varustettua vihreää pistettä, niin voit zoomata ulos tai vihreitä nuolia, niin pääset viereisille kartoille.


METAR-TAF: